Time;durP1;ratioP1;P1;durP2;ratioP2;P2;SDS_P1;SDS_P2;PMS_P1;PMS_P2;Temp;Humidity;BMP_temperature;BMP_pressure;BME280_temperature;BME280_humidity;BME280_pressure;Samples;Min_cycle;Max_cycle;Signal;HPM_P1;HPM_P2
2021/05/02 00:00:09;;;;;;;24.35;17.35;;;6.70;99.90;;;;;;5051521;28;20056;-59
2021/05/02 00:02:35;;;;;;;22.25;16.63;;;6.80;99.90;;;;;;5052145;28;20098;-59
2021/05/02 00:05:02;;;;;;;21.02;16.38;;;6.80;99.90;;;;;;5052078;28;20500;-59
2021/05/02 00:07:28;;;;;;;21.73;17.23;;;6.90;99.90;;;;;;5052407;28;20112;-59
2021/05/02 00:09:54;;;;;;;22.63;16.88;;;6.80;99.90;;;;;;5052305;28;20055;-59
2021/05/02 00:12:19;;;;;;;26.48;18.58;;;6.90;99.90;;;;;;5052049;28;20138;-59
2021/05/02 00:14:45;;;;;;;23.25;18.48;;;6.80;99.90;;;;;;5050594;28;20028;-59
2021/05/02 00:17:10;;;;;;;21.65;17.88;;;6.80;99.90;;;;;;5052152;28;20470;-59
2021/05/02 00:19:38;;;;;;;20.88;17.67;;;6.70;99.90;;;;;;5052139;28;20025;-59
2021/05/02 00:22:04;;;;;;;25.67;18.23;;;6.80;99.90;;;;;;5051481;28;20064;-59
2021/05/02 00:24:31;;;;;;;25.10;17.67;;;6.80;99.90;;;;;;5051475;28;20025;-59
2021/05/02 00:26:57;;;;;;;23.40;17.70;;;6.80;99.90;;;;;;5052446;28;20038;-59
2021/05/02 00:29:23;;;;;;;26.33;18.25;;;6.80;99.90;;;;;;5051259;28;20025;-59
2021/05/02 00:31:50;;;;;;;22.92;17.88;;;6.80;99.90;;;;;;5052244;28;20044;-59
2021/05/02 00:34:15;;;;;;;24.83;18.42;;;6.90;99.90;;;;;;5052152;28;20048;-59
2021/05/02 00:36:42;;;;;;;22.00;18.40;;;6.90;99.90;;;;;;5052524;28;20045;-59
2021/05/02 00:39:08;;;;;;;22.33;17.80;;;6.90;99.90;;;;;;5052280;28;20414;-59
2021/05/02 00:41:35;;;;;;;23.52;18.10;;;6.90;99.90;;;;;;5051849;28;20036;-59
2021/05/02 00:44:25;;;;;;;27.50;19.52;;;6.90;99.90;;;;;;5051683;28;20025;-59
2021/05/02 00:47:07;;;;;;;24.75;19.23;;;6.90;99.90;;;;;;5052088;28;20021;-59
2021/05/02 00:49:46;;;;;;;30.42;20.45;;;6.90;99.90;;;;;;5051561;28;20125;-59
2021/05/02 00:52:33;;;;;;;26.98;20.38;;;6.90;99.90;;;;;;5051892;28;20017;-59
2021/05/02 00:55:08;;;;;;;26.40;20.48;;;6.80;99.90;;;;;;5051040;28;20585;-59
2021/05/02 00:57:53;;;;;;;27.40;19.52;;;6.80;99.90;;;;;;5051967;28;20363;-59
2021/05/02 01:00:19;;;;;;;25.67;20.13;;;6.90;99.90;;;;;;5055409;28;20037;-59
2021/05/02 01:02:47;;;;;;;23.58;19.10;;;6.90;99.90;;;;;;5056248;28;20069;-59
2021/05/02 01:05:13;;;;;;;28.55;20.90;;;6.90;99.90;;;;;;5055127;28;20473;-59
2021/05/02 01:07:41;;;;;;;26.73;20.50;;;6.90;99.90;;;;;;5055100;28;20067;-59
2021/05/02 01:10:15;;;;;;;27.13;20.73;;;7.00;99.90;;;;;;5055239;28;20449;-59
2021/05/02 01:12:45;;;;;;;26.42;19.88;;;7.00;99.90;;;;;;5055006;28;20033;-59
2021/05/02 01:15:13;;;;;;;26.40;19.83;;;6.90;99.90;;;;;;5055321;28;20029;-59
2021/05/02 01:17:42;;;;;;;26.98;19.35;;;6.90;99.90;;;;;;5055274;28;20521;-59
2021/05/02 01:20:10;;;;;;;28.13;20.25;;;6.80;99.90;;;;;;5054707;28;20049;-59
2021/05/02 01:22:38;;;;;;;26.10;20.23;;;6.70;99.90;;;;;;5055043;28;20036;-59
2021/05/02 01:25:04;;;;;;;27.90;20.95;;;6.60;99.90;;;;;;5053449;28;20052;-59
2021/05/02 01:27:32;;;;;;;30.58;20.13;;;6.60;99.90;;;;;;5055042;28;20025;-59
2021/05/02 01:29:59;;;;;;;26.48;20.02;;;6.60;99.90;;;;;;5054729;28;20033;-59
2021/05/02 01:32:26;;;;;;;28.10;19.73;;;6.60;99.90;;;;;;5054617;28;20485;-59
2021/05/02 01:34:53;;;;;;;32.33;21.40;;;6.50;99.90;;;;;;5054903;28;20477;-59
2021/05/02 01:37:20;;;;;;;29.77;19.85;;;6.60;99.90;;;;;;5055309;28;20465;-59
2021/05/02 01:39:47;;;;;;;31.80;20.77;;;6.50;99.90;;;;;;5055445;28;20095;-59
2021/05/02 01:42:12;;;;;;;28.50;21.02;;;6.60;99.90;;;;;;5054979;28;20025;-59
2021/05/02 01:44:38;;;;;;;28.40;21.17;;;6.40;99.90;;;;;;5053460;28;20040;-59
2021/05/02 01:47:30;;;;;;;29.85;21.83;;;6.40;99.90;;;;;;5054651;28;20035;-59
2021/05/02 01:50:00;;;;;;;26.63;20.87;;;6.40;99.90;;;;;;5055327;28;20044;-59
2021/05/02 01:52:27;;;;;;;30.88;22.15;;;6.40;99.90;;;;;;5054453;28;20099;-59
2021/05/02 01:54:54;;;;;;;27.63;21.88;;;6.40;99.90;;;;;;5054575;28;20531;-58
2021/05/02 01:57:28;;;;;;;29.90;21.67;;;6.40;99.90;;;;;;5054394;28;20025;-58
2021/05/02 01:59:56;;;;;;;34.33;21.75;;;6.40;99.90;;;;;;5053934;28;20129;-59
2021/05/02 02:02:24;;;;;;;29.63;22.38;;;6.30;99.90;;;;;;5053427;28;20044;-59
2021/05/02 02:04:57;;;;;;;30.23;20.85;;;6.20;99.90;;;;;;5054145;28;20051;-59
2021/05/02 02:07:23;;;;;;;30.08;22.27;;;6.30;99.90;;;;;;5055310;28;20057;-59
2021/05/02 02:09:51;;;;;;;29.27;21.80;;;6.30;99.90;;;;;;5052071;28;20515;-59
2021/05/02 02:12:17;;;;;;;29.15;21.20;;;6.30;99.90;;;;;;5054323;28;20033;-59
2021/05/02 02:14:43;;;;;;;32.97;22.25;;;6.30;99.90;;;;;;5053822;28;20025;-59
2021/05/02 02:17:10;;;;;;;29.83;21.00;;;6.30;99.90;;;;;;5054266;28;20326;-59
2021/05/02 02:19:36;;;;;;;28.48;21.23;;;6.30;99.90;;;;;;5054338;28;20543;-59
2021/05/02 02:22:03;;;;;;;32.00;21.80;;;6.30;99.90;;;;;;5054063;28;20039;-59
2021/05/02 02:24:45;;;;;;;29.88;20.92;;;6.30;99.90;;;;;;5053875;28;20017;-59
2021/05/02 02:27:13;;;;;;;29.73;21.30;;;6.30;99.90;;;;;;5054038;28;20103;-59
2021/05/02 02:29:49;;;;;;;29.13;21.70;;;6.30;99.90;;;;;;5053441;28;20025;-59
2021/05/02 02:32:16;;;;;;;29.65;21.50;;;6.30;99.90;;;;;;5054067;28;20044;-59
2021/05/02 02:34:49;;;;;;;33.83;22.45;;;6.30;99.90;;;;;;5053981;28;20035;-59
2021/05/02 02:37:20;;;;;;;31.40;22.00;;;6.20;99.90;;;;;;5054333;28;20024;-59
2021/05/02 02:39:51;;;;;;;28.40;21.90;;;6.20;99.90;;;;;;5054003;28;20029;-59
2021/05/02 02:42:21;;;;;;;33.58;22.23;;;6.20;99.90;;;;;;5054050;28;20103;-59
2021/05/02 02:44:54;;;;;;;31.13;22.17;;;6.20;99.90;;;;;;5052455;28;20036;-59
2021/05/02 02:47:21;;;;;;;31.02;22.40;;;6.20;99.90;;;;;;5054557;28;20024;-59
2021/05/02 02:49:52;;;;;;;29.95;20.98;;;6.20;99.90;;;;;;5054080;28;20085;-59
2021/05/02 02:52:20;;;;;;;33.28;21.55;;;6.30;99.90;;;;;;5054487;28;20040;-59
2021/05/02 02:54:57;;;;;;;27.08;20.52;;;6.30;99.90;;;;;;5052462;28;20028;-58
2021/05/02 02:57:26;;;;;;;31.73;20.70;;;6.30;99.90;;;;;;5052394;28;20033;-58
2021/05/02 02:59:54;;;;;;;27.83;19.88;;;6.40;99.90;;;;;;5053150;28;20041;-58
2021/05/02 03:02:20;;;;;;;31.35;21.00;;;6.50;99.90;;;;;;5053423;28;20017;-58
2021/05/02 03:04:50;;;;;;;27.50;19.98;;;6.50;99.90;;;;;;5053720;28;20166;-58
2021/05/02 03:07:19;;;;;;;27.58;19.92;;;6.50;99.90;;;;;;5054202;28;20033;-58
2021/05/02 03:09:48;;;;;;;29.35;19.58;;;6.50;99.90;;;;;;5053686;28;20040;-58
2021/05/02 03:12:18;;;;;;;25.10;19.23;;;6.50;99.90;;;;;;5052396;28;20029;-58
2021/05/02 03:14:45;;;;;;;27.40;19.83;;;6.40;99.90;;;;;;5053636;28;20039;-58
2021/05/02 03:17:12;;;;;;;28.45;19.80;;;6.50;99.90;;;;;;5053732;28;20151;-58
2021/05/02 03:19:42;;;;;;;31.60;20.30;;;6.60;99.90;;;;;;5053548;28;20021;-59
2021/05/02 03:22:13;;;;;;;28.92;19.30;;;6.50;99.90;;;;;;5052888;28;20535;-59
2021/05/02 03:24:45;;;;;;;26.65;19.08;;;6.50;99.90;;;;;;5053234;28;20025;-59
2021/05/02 03:27:27;;;;;;;26.27;20.15;;;6.60;99.90;;;;;;5053199;28;20108;-59
2021/05/02 03:29:57;;;;;;;24.05;18.48;;;6.60;99.90;;;;;;5052617;28;20151;-59
2021/05/02 03:32:27;;;;;;;27.80;18.98;;;6.70;99.90;;;;;;5053085;28;20083;-59
2021/05/02 03:34:56;;;;;;;26.48;19.27;;;6.80;99.90;;;;;;5052957;28;20036;-59
2021/05/02 03:37:28;;;;;;;28.75;19.20;;;6.80;99.90;;;;;;5052471;28;20074;-59
2021/05/02 03:39:54;;;;;;;27.90;19.98;;;6.90;99.90;;;;;;5051279;28;20075;-59
2021/05/02 03:42:19;;;;;;;26.13;19.35;;;6.90;99.90;;;;;;5052107;28;20046;-59
2021/05/02 03:44:45;;;;;;;24.63;18.40;;;7.00;99.90;;;;;;5052089;28;20081;-59
2021/05/02 03:47:11;;;;;;;25.77;18.30;;;7.00;99.90;;;;;;5052349;28;20037;-59
2021/05/02 03:49:38;;;;;;;24.48;17.55;;;7.00;99.90;;;;;;5052592;28;20021;-59
2021/05/02 03:52:04;;;;;;;26.70;19.50;;;7.00;99.90;;;;;;5052150;28;20064;-59
2021/05/02 03:54:30;;;;;;;26.00;18.90;;;7.00;99.90;;;;;;5052127;28;20052;-59
2021/05/02 03:56:56;;;;;;;27.20;18.35;;;7.10;99.90;;;;;;5052245;28;20017;-58
2021/05/02 03:59:26;;;;;;;22.23;18.83;;;7.10;99.90;;;;;;5051964;28;20037;-58
2021/05/02 04:01:56;;;;;;;25.17;18.55;;;7.10;99.90;;;;;;5052056;28;20063;-58
2021/05/02 04:04:27;;;;;;;24.98;19.30;;;7.10;99.90;;;;;;5051604;28;20060;-58
2021/05/02 04:07:04;;;;;;;26.92;18.60;;;7.10;99.90;;;;;;5051942;28;20036;-58
2021/05/02 04:09:29;;;;;;;24.70;18.60;;;7.10;99.90;;;;;;5051260;28;20071;-58
2021/05/02 04:11:56;;;;;;;23.67;18.58;;;7.00;99.90;;;;;;5051830;28;20474;-58
2021/05/02 04:14:22;;;;;;;27.63;19.40;;;7.00;99.90;;;;;;5051776;28;20083;-59
2021/05/02 04:16:58;;;;;;;23.80;18.05;;;7.00;99.90;;;;;;5052402;28;20064;-58
2021/05/02 04:19:24;;;;;;;25.77;17.23;;;6.90;99.90;;;;;;5052424;28;20442;-58
2021/05/02 04:21:51;;;;;;;20.35;17.13;;;7.00;99.90;;;;;;5051732;28;20082;-59
2021/05/02 04:24:16;;;;;;;22.00;17.00;;;6.90;99.90;;;;;;5051292;28;20048;-59
2021/05/02 04:26:46;;;;;;;26.15;17.38;;;6.90;99.90;;;;;;5052091;28;20037;-59
2021/05/02 04:29:12;;;;;;;23.10;17.17;;;6.90;99.90;;;;;;5051866;28;20107;-58
2021/05/02 04:31:38;;;;;;;20.75;16.75;;;6.90;99.90;;;;;;5051617;28;20111;-58
2021/05/02 04:34:05;;;;;;;22.52;17.52;;;6.80;99.90;;;;;;5051161;28;20492;-58
2021/05/02 04:36:31;;;;;;;23.15;16.38;;;6.80;99.90;;;;;;5052375;28;20048;-58
2021/05/02 04:38:57;;;;;;;22.88;17.55;;;6.70;99.90;;;;;;5051480;28;20497;-58
2021/05/02 04:41:23;;;;;;;24.95;17.92;;;6.70;99.90;;;;;;5052235;28;20025;-58
2021/05/02 04:43:49;;;;;;;22.63;16.08;;;6.70;99.90;;;;;;5051885;28;20048;-58
2021/05/02 04:46:14;;;;;;;23.00;17.52;;;6.70;99.90;;;;;;5051634;28;20057;-58
2021/05/02 04:48:40;;;;;;;27.48;18.67;;;6.70;99.90;;;;;;5051721;28;20517;-58
2021/05/02 04:51:06;;;;;;;20.45;17.85;;;6.70;99.90;;;;;;5051498;28;20441;-58
2021/05/02 04:53:32;;;;;;;24.00;17.70;;;6.70;99.90;;;;;;5050814;28;20459;-58
2021/05/02 04:55:58;;;;;;;21.80;17.60;;;6.70;99.90;;;;;;5051631;28;20101;-58
2021/05/02 04:58:24;;;;;;;22.85;18.05;;;6.70;99.90;;;;;;5051361;28;20066;-58
2021/05/02 05:00:49;;;;;;;29.08;18.17;;;6.80;99.90;;;;;;5051258;28;20033;-58
2021/05/02 05:03:16;;;;;;;25.02;19.00;;;6.80;99.90;;;;;;5051517;28;20025;-58
2021/05/02 05:05:42;;;;;;;25.10;18.98;;;6.70;99.90;;;;;;5051433;28;20025;-58
2021/05/02 05:08:07;;;;;;;25.75;18.75;;;6.70;99.90;;;;;;5051724;28;20085;-58
2021/05/02 05:10:33;;;;;;;23.10;18.63;;;6.80;99.90;;;;;;5051422;28;20029;-58
2021/05/02 05:12:59;;;;;;;23.38;18.30;;;6.80;99.90;;;;;;5051421;28;20499;-59
2021/05/02 05:15:24;;;;;;;26.30;20.23;;;6.80;99.90;;;;;;5051682;28;20048;-59
2021/05/02 05:17:50;;;;;;;23.13;18.80;;;6.80;99.90;;;;;;5051726;28;20072;-59
2021/05/02 05:20:16;;;;;;;24.77;18.55;;;6.70;99.90;;;;;;5051851;28;20344;-58
2021/05/02 05:22:41;;;;;;;25.75;19.55;;;6.70;99.90;;;;;;5051791;28;20103;-58
2021/05/02 05:25:07;;;;;;;25.00;19.30;;;6.70;99.90;;;;;;5052149;28;20025;-58
2021/05/02 05:27:33;;;;;;;27.45;20.00;;;6.70;99.90;;;;;;5052051;28;20420;-58
2021/05/02 05:29:59;;;;;;;28.63;20.17;;;6.70;99.90;;;;;;5050379;28;20025;-58
2021/05/02 05:32:24;;;;;;;24.63;20.02;;;6.70;99.90;;;;;;5051760;28;20021;-58
2021/05/02 05:34:50;;;;;;;27.30;20.92;;;6.80;99.90;;;;;;5051640;28;20049;-58
2021/05/02 05:37:16;;;;;;;26.35;20.00;;;6.90;99.90;;;;;;5051177;28;20429;-59
2021/05/02 05:39:41;;;;;;;26.70;20.10;;;6.90;99.90;;;;;;5051316;28;20025;-59
2021/05/02 05:42:07;;;;;;;28.08;20.45;;;6.90;99.90;;;;;;5051640;28;20025;-59
2021/05/02 05:44:33;;;;;;;28.17;21.27;;;7.00;99.90;;;;;;5052688;28;20116;-59
2021/05/02 05:46:58;;;;;;;29.58;20.77;;;7.00;99.90;;;;;;5055330;28;20105;-59
2021/05/02 05:49:24;;;;;;;27.92;20.95;;;7.10;99.90;;;;;;5054997;28;20048;-59
2021/05/02 05:51:52;;;;;;;28.80;21.63;;;7.10;99.90;;;;;;5054615;28;20025;-59
2021/05/02 05:54:22;;;;;;;28.13;21.23;;;7.10;99.90;;;;;;5054800;28;20020;-58
2021/05/02 05:56:48;;;;;;;26.95;21.13;;;7.10;99.90;;;;;;5054971;28;20033;-58
2021/05/02 05:59:14;;;;;;;32.75;21.88;;;7.20;99.90;;;;;;5054525;28;20145;-58
2021/05/02 06:01:40;;;;;;;32.50;20.85;;;7.20;99.90;;;;;;5054247;28;20120;-58
2021/05/02 06:04:05;;;;;;;28.98;21.88;;;7.30;99.90;;;;;;5054567;28;20032;-58
2021/05/02 06:06:33;;;;;;;27.17;20.80;;;7.40;99.90;;;;;;5054639;28;20029;-58
2021/05/02 06:09:04;;;;;;;30.00;21.63;;;7.60;99.90;;;;;;5054426;28;20126;-58
2021/05/02 06:11:31;;;;;;;27.05;19.45;;;7.70;99.90;;;;;;5054829;28;20021;-58
2021/05/02 06:13:59;;;;;;;28.70;19.48;;;7.80;99.90;;;;;;5054677;28;20032;-58
2021/05/02 06:16:25;;;;;;;29.88;19.55;;;7.90;99.90;;;;;;5054525;28;20029;-58
2021/05/02 06:18:52;;;;;;;24.05;18.80;;;8.10;99.90;;;;;;5053790;28;20400;-59
2021/05/02 06:21:19;;;;;;;26.90;17.88;;;8.20;99.90;;;;;;5054003;28;20543;-59
2021/05/02 06:23:46;;;;;;;23.70;17.70;;;8.40;99.90;;;;;;5054217;28;20025;-59
2021/05/02 06:26:13;;;;;;;27.25;16.88;;;8.50;99.90;;;;;;5053862;28;20032;-59
2021/05/02 06:28:40;;;;;;;22.40;17.17;;;8.60;99.90;;;;;;5054158;28;20021;-59
2021/05/02 06:31:06;;;;;;;23.73;16.75;;;8.60;99.90;;;;;;5053715;28;20543;-59
2021/05/02 06:33:32;;;;;;;24.85;17.65;;;8.70;99.90;;;;;;5053460;28;20037;-59
2021/05/02 06:35:57;;;;;;;23.35;17.55;;;8.80;99.90;;;;;;5053301;28;20021;-59
2021/05/02 06:38:23;;;;;;;21.95;14.93;;;8.80;99.90;;;;;;5053149;28;20086;-59
2021/05/02 06:40:48;;;;;;;22.85;15.18;;;8.80;99.90;;;;;;5053294;28;20469;-59
2021/05/02 06:43:14;;;;;;;19.92;14.43;;;8.80;99.90;;;;;;5052283;28;20104;-60
2021/05/02 06:45:39;;;;;;;22.45;13.57;;;8.90;99.90;;;;;;5053267;28;20028;-59
2021/05/02 06:48:05;;;;;;;20.85;13.43;;;8.90;99.90;;;;;;5052366;28;20625;-59
2021/05/02 06:50:31;;;;;;;14.75;10.55;;;8.90;99.90;;;;;;5053475;28;20087;-59
2021/05/02 06:52:57;;;;;;;12.27;8.27;;;9.10;99.90;;;;;;5054091;28;20107;-58
2021/05/02 06:55:23;;;;;;;13.20;7.07;;;9.10;99.90;;;;;;5052854;28;20422;-58
2021/05/02 06:57:48;;;;;;;16.33;7.75;;;9.00;99.90;;;;;;5053449;28;20025;-58
2021/05/02 07:00:14;;;;;;;16.50;8.30;;;9.10;99.90;;;;;;5052875;28;20052;-58
2021/05/02 07:02:40;;;;;;;8.88;5.53;;;9.30;99.90;;;;;;5052861;28;20057;-58
2021/05/02 07:05:06;;;;;;;7.35;5.05;;;9.90;99.90;;;;;;5051105;28;20025;-58
2021/05/02 07:07:32;;;;;;;7.72;5.10;;;10.90;99.90;;;;;;5053101;28;20029;-60
2021/05/02 07:09:57;;;;;;;16.08;6.78;;;11.80;99.90;;;;;;5052796;28;20680;-60
2021/05/02 07:12:24;;;;;;;12.85;6.82;;;11.60;99.90;;;;;;5053662;28;20032;-60
2021/05/02 07:14:50;;;;;;;13.00;6.40;;;11.30;99.90;;;;;;5052550;28;20443;-59
2021/05/02 07:17:16;;;;;;;15.48;5.85;;;10.90;99.90;;;;;;5053049;28;20017;-59
2021/05/02 07:19:42;;;;;;;10.02;5.20;;;10.90;99.90;;;;;;5052085;28;20024;-61
2021/05/02 07:22:08;;;;;;;8.93;4.65;;;11.80;99.90;;;;;;5052372;28;20370;-60
2021/05/02 07:24:33;;;;;;;14.77;5.50;;;11.20;99.90;;;;;;5053627;28;20032;-60
2021/05/02 07:26:59;;;;;;;10.65;5.15;;;10.90;99.90;;;;;;5053258;28;20021;-60
2021/05/02 07:29:25;;;;;;;7.65;4.38;;;11.00;99.90;;;;;;5052304;28;20032;-60
2021/05/02 07:31:51;;;;;;;12.80;4.75;;;12.00;99.90;;;;;;5051823;28;20063;-60
2021/05/02 07:34:16;;;;;;;7.60;4.18;;;13.20;99.90;;;;;;5051589;28;20099;-60
2021/05/02 07:36:42;;;;;;;12.88;8.05;;;14.50;99.90;;;;;;5051494;28;20236;-60
2021/05/02 07:39:09;;;;;;;13.95;8.15;;;15.50;99.90;;;;;;5051417;28;20031;-60
2021/05/02 07:41:35;;;;;;;12.25;8.13;;;16.20;97.00;;;;;;5051479;28;20035;-60
2021/05/02 07:44:00;;;;;;;13.75;7.95;;;16.70;94.70;;;;;;5051811;28;20477;-60
2021/05/02 07:46:26;;;;;;;10.63;6.90;;;17.70;91.00;;;;;;5052121;28;20060;-60
2021/05/02 07:48:52;;;;;;;12.75;6.32;;;17.70;84.70;;;;;;5051919;28;20029;-60
2021/05/02 07:51:18;;;;;;;9.38;4.85;;;17.10;82.40;;;;;;5049769;28;20029;-60
2021/05/02 07:53:44;;;;;;;12.10;5.18;;;16.00;82.20;;;;;;5050994;28;20508;-60
2021/05/02 07:56:09;;;;;;;8.45;4.95;;;15.20;85.20;;;;;;5051087;28;20033;-60
2021/05/02 07:58:35;;;;;;;8.20;4.25;;;13.90;88.20;;;;;;5051110;28;20060;-60
2021/05/02 08:01:01;;;;;;;7.45;3.97;;;13.00;90.80;;;;;;5052059;28;20017;-60
2021/05/02 08:03:26;;;;;;;12.73;4.07;;;12.30;93.10;;;;;;5051296;28;20500;-60
2021/05/02 08:05:52;;;;;;;8.63;2.85;;;12.80;92.30;;;;;;5050176;28;20098;-61
2021/05/02 08:08:18;;;;;;;5.93;3.08;;;13.30;90.40;;;;;;5050091;28;20104;-61
2021/05/02 08:10:44;;;;;;;9.70;3.28;;;14.00;86.70;;;;;;5051079;28;20071;-61
2021/05/02 08:13:09;;;;;;;6.72;2.78;;;15.40;83.20;;;;;;5050958;28;20025;-61
2021/05/02 08:15:35;;;;;;;6.82;3.00;;;16.90;75.00;;;;;;5050802;28;20108;-61
2021/05/02 08:18:01;;;;;;;10.80;3.67;;;17.20;70.00;;;;;;5051095;28;20022;-61
2021/05/02 08:20:27;;;;;;;6.95;3.15;;;17.40;65.70;;;;;;5050977;28;20056;-61
2021/05/02 08:22:53;;;;;;;4.18;2.30;;;17.20;63.30;;;;;;5050822;28;20083;-61
2021/05/02 08:25:20;;;;;;;6.22;2.00;;;16.80;60.60;;;;;;5050944;28;20021;-61
2021/05/02 08:27:47;;;;;;;6.78;2.25;;;17.20;60.10;;;;;;5050956;28;20421;-61
2021/05/02 08:30:13;;;;;;;6.47;1.77;;;18.20;58.60;;;;;;5050709;28;20043;-61
2021/05/02 08:32:39;;;;;;;5.35;1.65;;;18.30;55.10;;;;;;5050623;28;20068;-61
2021/05/02 08:35:05;;;;;;;4.57;1.60;;;18.50;51.20;;;;;;5050705;28;20389;-61
2021/05/02 08:37:31;;;;;;;3.50;2.10;;;19.40;49.20;;;;;;5051214;28;20053;-61
2021/05/02 08:39:57;;;;;;;7.28;2.08;;;20.70;47.70;;;;;;5051064;28;20178;-61
2021/05/02 08:42:23;;;;;;;3.72;1.60;;;20.00;47.90;;;;;;5050814;28;20476;-61
2021/05/02 08:44:48;;;;;;;6.63;1.88;;;19.50;49.40;;;;;;5051508;28;20490;-61
2021/05/02 08:47:14;;;;;;;3.83;1.40;;;19.80;50.10;;;;;;5051650;28;20024;-63
2021/05/02 08:49:44;;;;;;;2.55;1.30;;;19.70;47.00;;;;;;5051716;28;20488;-61
2021/05/02 08:52:10;;;;;;;4.43;1.70;;;18.80;48.20;;;;;;5050786;28;20028;-61
2021/05/02 08:54:37;;;;;;;5.22;1.48;;;17.10;50.60;;;;;;5050422;28;20378;-61
2021/05/02 08:57:03;;;;;;;2.30;1.40;;;15.80;54.60;;;;;;5050578;28;20104;-61
2021/05/02 08:59:28;;;;;;;2.78;1.35;;;16.30;53.80;;;;;;5050035;28;20087;-61
2021/05/02 09:01:58;;;;;;;7.20;1.58;;;16.80;51.50;;;;;;5050365;28;20421;-61
2021/05/02 09:04:24;;;;;;;6.07;1.67;;;18.00;50.20;;;;;;5050595;28;20017;-61
2021/05/02 09:06:50;;;;;;;2.55;1.10;;;18.50;48.70;;;;;;5050495;28;20051;-61
2021/05/02 09:09:16;;;;;;;2.85;0.88;;;18.50;44.40;;;;;;5049149;28;20091;-61
2021/05/02 09:11:44;;;;;;;2.25;1.10;;;18.10;43.50;;;;;;5050732;28;20057;-61
2021/05/02 09:14:16;;;;;;;1.70;1.13;;;18.00;45.10;;;;;;5050376;28;20017;-61
2021/05/02 09:16:53;;;;;;;2.55;1.30;;;17.90;45.50;;;;;;5050201;28;20025;-61
2021/05/02 09:19:21;;;;;;;5.05;1.40;;;18.80;45.40;;;;;;5052059;28;20486;-61
2021/05/02 09:21:47;;;;;;;4.68;1.40;;;19.70;44.70;;;;;;5054955;28;20044;-61
2021/05/02 09:24:33;;;;;;;4.90;1.67;;;19.60;45.10;;;;;;5054691;28;20025;-61
2021/05/02 09:27:02;;;;;;;3.92;1.80;;;18.80;47.20;;;;;;5053365;28;20025;-61
2021/05/02 09:29:30;;;;;;;5.90;2.28;;;17.50;52.00;;;;;;5054280;28;20025;-61
2021/05/02 09:31:56;;;;;;;5.28;1.70;;;15.80;55.50;;;;;;5053922;28;20033;-61
2021/05/02 09:34:22;;;;;;;6.88;1.95;;;14.90;58.10;;;;;;5053796;28;20375;-61
2021/05/02 09:37:06;;;;;;;4.50;1.65;;;14.30;59.80;;;;;;5052786;28;20029;-60
2021/05/02 09:39:48;;;;;;;7.32;1.95;;;14.00;61.70;;;;;;5053880;28;20021;-60
2021/05/02 09:42:25;;;;;;;7.22;1.85;;;13.90;61.90;;;;;;5054314;28;20029;-60
2021/05/02 09:44:54;;;;;;;6.13;1.70;;;13.40;62.20;;;;;;5054089;28;20025;-60
2021/05/02 09:47:34;;;;;;;4.45;1.70;;;14.50;62.00;;;;;;5053938;28;20108;-60
2021/05/02 09:50:13;;;;;;;4.05;1.63;;;15.60;57.60;;;;;;5053419;28;20466;-60
2021/05/02 09:52:46;;;;;;;6.45;1.90;;;16.60;55.10;;;;;;5047203;28;20014;-60
2021/05/02 09:55:25;;;;;;;8.90;1.48;;;17.70;52.30;;;;;;5026874;28;20037;-60
2021/05/02 09:58:17;;;;;;;3.72;2.10;;;18.00;51.60;;;;;;5023461;28;20024;-60
2021/05/02 10:00:55;;;;;;;6.45;1.98;;;17.90;50.80;;;;;;5025723;28;20041;-60
2021/05/02 10:03:22;;;;;;;2.20;1.70;;;16.90;52.60;;;;;;5030440;28;20415;-60
2021/05/02 10:06:10;;;;;;;6.95;2.13;;;16.60;53.70;;;;;;5030649;28;20025;-60
2021/05/02 10:08:40;;;;;;;5.00;1.58;;;16.00;54.90;;;;;;5032172;28;20018;-60
2021/05/02 10:11:07;;;;;;;4.70;1.63;;;15.10;56.60;;;;;;5024328;28;20109;-60
2021/05/02 10:13:35;;;;;;;5.45;1.55;;;14.50;57.50;;;;;;5020143;28;20052;-60
2021/05/02 10:16:01;;;;;;;4.70;1.83;;;15.10;56.00;;;;;;5032831;28;20026;-60
2021/05/02 10:18:27;;;;;;;5.32;1.58;;;16.00;53.70;;;;;;5027116;28;20025;-60
2021/05/02 10:20:53;;;;;;;5.53;1.45;;;17.00;50.60;;;;;;5030651;28;20156;-60
2021/05/02 10:23:19;;;;;;;3.75;1.40;;;17.80;48.80;;;;;;5024150;23;20100;-87
2021/05/02 10:25:50;;;;;;;3.40;1.30;;;19.00;46.10;;;;;;4962793;28;20028;-88
2021/05/02 10:28:36;;;;;;;3.53;1.17;;;19.70;44.40;;;;;;4961987;28;20102;-87
2021/05/02 10:31:04;;;;;;;2.70;1.27;;;19.90;43.70;;;;;;4961740;28;20038;-88
2021/05/02 10:33:38;;;;;;;6.40;1.60;;;20.10;43.40;;;;;;4963999;28;20023;-87
2021/05/02 10:36:22;;;;;;;2.15;1.33;;;19.40;43.60;;;;;;4964804;28;20568;-87
2021/05/02 10:38:56;;;;;;;6.03;1.50;;;18.50;45.20;;;;;;4964566;29;20485;-87
2021/05/02 10:41:28;;;;;;;3.38;1.50;;;17.50;47.50;;;;;;4964707;29;20034;-87
2021/05/02 10:43:55;;;;;;;2.73;1.57;;;16.60;48.40;;;;;;4961484;29;20369;-87
2021/05/02 10:46:44;;;;;;;3.22;1.40;;;16.60;50.30;;;;;;4964001;29;20031;-87
2021/05/02 10:49:30;;;;;;;6.10;1.60;;;17.60;48.40;;;;;;4963155;29;20042;-87
2021/05/02 10:52:16;;;;;;;2.88;1.58;;;17.70;47.50;;;;;;4962171;29;20027;-87
2021/05/02 10:54:44;;;;;;;4.20;1.60;;;18.10;48.00;;;;;;4961595;29;20592;-87
2021/05/02 10:57:33;;;;;;;4.13;1.48;;;18.80;46.90;;;;;;4978894;28;20389;-88
2021/05/02 11:00:04;;;;;;;4.03;1.40;;;19.40;46.10;;;;;;4964016;29;20114;-87
2021/05/02 11:02:45;;;;;;;2.90;1.63;;;19.30;44.20;;;;;;4963832;28;20023;-87
2021/05/02 11:05:15;;;;;;;2.40;1.30;;;19.70;44.40;;;;;;4979596;28;20031;-87
2021/05/02 11:07:46;;;;;;;2.75;1.55;;;19.80;41.90;;;;;;4962928;28;20107;-87
2021/05/02 11:10:15;;;;;;;2.65;1.55;;;19.30;43.10;;;;;;4963770;28;20035;-87
2021/05/02 11:12:41;;;;;;;3.63;1.40;;;18.30;44.50;;;;;;4964172;28;20035;-87
2021/05/02 11:15:36;;;;;;;3.58;1.85;;;17.50;47.10;;;;;;4963683;28;20081;-88
2021/05/02 11:18:02;;;;;;;6.10;2.30;;;16.20;50.70;;;;;;4961916;29;20039;-87
2021/05/02 11:21:10;;;;;;;6.10;2.28;;;15.60;51.90;;;;;;4963663;28;20019;-87
2021/05/02 11:27:03;;;;;;;4.57;1.90;;;14.40;58.30;;;;;;5009275;28;20056;-58
2021/05/02 11:29:36;;;;;;;4.75;2.40;;;14.30;60.20;;;;;;5011821;28;20492;-59
2021/05/02 11:32:03;;;;;;;7.10;2.10;;;14.10;61.10;;;;;;5026939;28;20028;-58
2021/05/02 11:34:49;;;;;;;5.03;2.55;;;14.00;62.30;;;;;;5011788;28;20048;-58
2021/05/02 11:37:45;;;;;;;4.30;2.35;;;14.30;63.10;;;;;;5012008;28;20049;-58
2021/05/02 11:40:35;;;;;;;6.30;2.20;;;15.00;61.80;;;;;;5011800;28;20033;-56
2021/05/02 11:43:23;;;;;;;5.20;2.30;;;16.30;57.20;;;;;;5011624;28;20390;-56
2021/05/02 11:45:59;;;;;;;6.32;2.40;;;17.10;53.50;;;;;;5011942;28;20026;-55
2021/05/02 11:48:33;;;;;;;3.17;2.30;;;18.30;51.10;;;;;;5011581;28;20018;-56
2021/05/02 11:51:02;;;;;;;5.30;2.25;;;17.10;51.60;;;;;;5011660;28;20018;-56
2021/05/02 11:53:37;;;;;;;4.97;2.40;;;16.20;52.90;;;;;;5011717;28;20029;-56
2021/05/02 11:56:15;;;;;;;5.70;2.67;;;15.50;54.10;;;;;;5011566;28;20041;-58
2021/05/02 11:58:40;;;;;;;3.90;2.75;;;15.20;54.80;;;;;;5010551;28;20379;-56
2021/05/02 12:01:14;;;;;;;5.80;2.30;;;15.10;55.70;;;;;;5010008;28;20022;-58
2021/05/02 12:03:40;;;;;;;5.18;2.30;;;14.50;55.80;;;;;;5011491;28;20029;-58
2021/05/02 12:06:07;;;;;;;4.93;2.30;;;14.40;56.30;;;;;;5011367;28;20026;-59
2021/05/02 12:08:33;;;;;;;7.25;3.85;;;14.70;56.20;;;;;;5011476;28;20538;-57
2021/05/02 12:11:00;;;;;;;5.30;2.88;;;15.10;55.40;;;;;;5011345;28;20133;-59
2021/05/02 12:13:40;;;;;;;5.32;2.60;;;15.30;53.70;;;;;;5011249;28;20026;-57
2021/05/02 12:16:14;;;;;;;5.03;2.60;;;15.50;53.60;;;;;;5011617;28;20616;-58
2021/05/02 12:18:59;;;;;;;4.43;2.63;;;15.60;55.60;;;;;;5011657;28;20020;-64
2021/05/02 12:21:31;;;;;;;6.32;2.88;;;14.80;63.90;;;;;;5011673;28;20409;-59
2021/05/02 12:24:07;;;;;;;9.60;2.72;;;14.00;72.70;;;;;;5011388;28;20033;-59
2021/05/02 12:26:34;;;;;;;7.93;3.30;;;12.90;75.50;;;;;;5011806;28;20103;-59
2021/05/02 12:29:07;;;;;;;4.18;2.90;;;12.10;82.30;;;;;;5011520;28;20018;-58
2021/05/02 12:31:36;;;;;;;6.75;3.60;;;11.70;84.80;;;;;;5011356;28;20023;-60
2021/05/02 12:34:07;;;;;;;3.83;2.28;;;11.30;93.70;;;;;;5011526;28;20037;-59
2021/05/02 12:36:33;;;;;;;3.55;2.22;;;12.40;90.80;;;;;;5011093;28;20169;-57
2021/05/02 12:39:07;;;;;;;4.15;2.15;;;13.70;81.10;;;;;;5010901;28;20018;-57
2021/05/02 12:41:36;;;;;;;4.78;2.08;;;15.40;75.30;;;;;;5011131;28;20033;-58
2021/05/02 12:44:32;;;;;;;4.47;2.40;;;16.20;66.80;;;;;;5011135;28;20453;-56
2021/05/02 12:47:02;;;;;;;4.28;2.45;;;17.60;67.20;;;;;;5002719;28;20041;-56
2021/05/02 12:49:33;;;;;;;3.35;2.22;;;17.80;59.70;;;;;;5010672;28;20518;-56
2021/05/02 12:52:02;;;;;;;4.03;2.42;;;16.50;66.20;;;;;;5011036;28;20105;-55
2021/05/02 12:54:36;;;;;;;3.40;2.10;;;16.30;69.90;;;;;;5012703;28;20025;-56